Time;durP1;ratioP1;P1;durP2;ratioP2;P2;SDS_P1;SDS_P2;PMS_P1;PMS_P2;Temp;Humidity;BMP_temperature;BMP_pressure;BME280_temperature;BME280_humidity;BME280_pressure;Samples;Min_cycle;Max_cycle;Signal;HPM_P1;HPM_P2
2023/07/25 00:00:58;;;;;;;11.80;3.58;;;18.50;99.90;;;;;;4147525;28;20121;-53
2023/07/25 00:03:01;;;;;;;10.05;3.47;;;18.50;99.90;;;;;;4135633;28;20089;-53
2023/07/25 00:05:04;;;;;;;7.55;3.65;;;18.50;99.90;;;;;;4131323;28;20053;-53
2023/07/25 00:07:06;;;;;;;7.55;3.13;;;18.50;99.90;;;;;;4131309;28;20483;-53
2023/07/25 00:09:09;;;;;;;5.72;2.60;;;18.40;99.90;;;;;;4130831;28;20046;-53
2023/07/25 00:11:12;;;;;;;5.82;2.45;;;18.50;99.90;;;;;;4131212;28;20050;-54
2023/07/25 00:13:18;;;;;;;4.75;2.50;;;18.50;99.90;;;;;;4130706;28;20101;-53
2023/07/25 00:15:20;;;;;;;8.75;3.10;;;18.40;99.90;;;;;;4113796;28;20043;-53
2023/07/25 00:17:22;;;;;;;6.50;3.03;;;18.40;99.90;;;;;;4131086;28;20516;-53
2023/07/25 00:19:25;;;;;;;6.13;2.80;;;18.40;99.90;;;;;;4131115;28;20050;-53
2023/07/25 00:21:30;;;;;;;5.38;2.80;;;18.50;99.90;;;;;;4130974;28;20054;-52
2023/07/25 00:23:33;;;;;;;5.00;2.85;;;18.50;99.90;;;;;;4112572;28;20082;-53
2023/07/25 00:25:36;;;;;;;7.05;2.85;;;18.50;99.90;;;;;;4131166;28;20054;-57
2023/07/25 00:27:38;;;;;;;5.45;3.15;;;18.40;99.90;;;;;;4131236;28;20130;-53
2023/07/25 00:29:41;;;;;;;6.68;2.92;;;18.40;99.90;;;;;;4131012;28;20046;-53
2023/07/25 00:31:43;;;;;;;7.95;2.95;;;18.40;99.90;;;;;;4130865;28;20046;-53
2023/07/25 00:33:45;;;;;;;6.50;2.70;;;18.40;99.90;;;;;;4130535;28;20049;-53
2023/07/25 00:35:53;;;;;;;6.50;2.88;;;18.50;99.90;;;;;;4130786;28;20050;-53
2023/07/25 00:37:55;;;;;;;6.13;2.90;;;18.50;99.90;;;;;;4130360;28;20125;-53
2023/07/25 00:39:57;;;;;;;7.57;2.90;;;18.50;99.90;;;;;;4130789;28;20121;-53
2023/07/25 00:42:01;;;;;;;7.43;2.83;;;18.50;99.90;;;;;;4130180;28;20043;-53
2023/07/25 00:44:03;;;;;;;4.90;2.78;;;18.50;99.90;;;;;;4114459;28;20477;-53
2023/07/25 00:46:06;;;;;;;8.00;2.80;;;18.50;99.90;;;;;;4133634;28;20129;-53
2023/07/25 00:48:08;;;;;;;7.43;3.08;;;18.50;99.90;;;;;;4133638;28;20461;-53
2023/07/25 00:50:10;;;;;;;7.40;2.97;;;18.40;99.90;;;;;;4149901;28;20096;-54
2023/07/25 00:52:12;;;;;;;6.05;3.00;;;18.40;99.90;;;;;;4149209;28;20398;-54
2023/07/25 00:54:15;;;;;;;8.45;2.63;;;18.40;99.90;;;;;;4148605;28;20089;-53
2023/07/25 00:56:18;;;;;;;6.68;3.10;;;18.40;99.90;;;;;;4149932;28;20087;-53
2023/07/25 00:58:21;;;;;;;5.78;2.95;;;18.40;99.90;;;;;;4149814;28;20050;-54
2023/07/25 01:00:23;;;;;;;7.30;3.70;;;18.40;99.90;;;;;;4149752;28;20523;-53
2023/07/25 01:02:26;;;;;;;7.28;3.03;;;18.30;99.90;;;;;;4143182;28;20137;-53
2023/07/25 01:04:28;;;;;;;7.50;3.20;;;18.30;99.90;;;;;;4133575;28;20109;-53
2023/07/25 01:06:30;;;;;;;7.53;3.40;;;18.30;99.90;;;;;;4133164;28;20093;-53
2023/07/25 01:08:32;;;;;;;5.68;2.88;;;18.30;99.90;;;;;;4133662;28;20057;-53
2023/07/25 01:10:38;;;;;;;8.02;3.70;;;18.30;99.90;;;;;;4133328;28;20050;-52
2023/07/25 01:12:40;;;;;;;6.63;3.20;;;18.30;99.90;;;;;;4132689;28;20112;-53
2023/07/25 01:14:44;;;;;;;6.47;3.38;;;18.30;99.90;;;;;;4133391;28;20042;-53
2023/07/25 01:16:46;;;;;;;6.75;3.55;;;18.40;99.90;;;;;;4133319;28;20047;-53
2023/07/25 01:18:49;;;;;;;7.10;3.30;;;18.30;99.90;;;;;;4133026;28;20133;-53
2023/07/25 01:20:51;;;;;;;5.57;3.22;;;18.30;99.90;;;;;;4133150;28;20061;-53
2023/07/25 01:22:54;;;;;;;6.05;2.83;;;18.30;99.90;;;;;;4132714;28;20405;-55
2023/07/25 01:24:57;;;;;;;4.35;3.10;;;18.30;99.90;;;;;;4133131;28;20533;-53
2023/07/25 01:27:00;;;;;;;6.25;3.58;;;18.30;99.90;;;;;;4133368;28;20411;-53
2023/07/25 01:29:02;;;;;;;7.72;2.95;;;18.20;99.90;;;;;;4115768;28;20053;-53
2023/07/25 01:31:05;;;;;;;7.15;3.35;;;18.20;99.90;;;;;;4133086;28;20125;-55
2023/07/25 01:33:07;;;;;;;7.43;3.90;;;18.20;99.90;;;;;;4115376;28;20077;-54
2023/07/25 01:35:09;;;;;;;5.35;3.10;;;18.30;99.90;;;;;;4133072;28;20043;-53
2023/07/25 01:37:11;;;;;;;5.78;3.13;;;18.20;99.90;;;;;;4132737;28;20078;-53
2023/07/25 01:39:13;;;;;;;7.38;3.47;;;18.20;99.90;;;;;;4132978;28;20516;-53
2023/07/25 01:41:17;;;;;;;5.40;3.25;;;18.20;99.90;;;;;;4133066;28;20463;-54
2023/07/25 01:43:19;;;;;;;5.95;2.88;;;18.20;99.90;;;;;;4132428;28;20050;-53
2023/07/25 01:45:21;;;;;;;5.75;4.10;;;18.20;99.90;;;;;;4132979;28;20157;-53
2023/07/25 01:47:25;;;;;;;8.57;3.80;;;18.10;99.90;;;;;;4132755;28;20053;-54
2023/07/25 01:49:28;;;;;;;;;;;18.10;99.90;;;;;;4143888;28;20046;-52
2023/07/25 01:51:30;;;;;;;6.72;3.83;;;18.10;99.90;;;;;;4148569;28;20012;-53
2023/07/25 01:53:32;;;;;;;5.78;3.53;;;18.10;99.90;;;;;;4148300;28;20050;-53
2023/07/25 01:55:36;;;;;;;8.02;4.57;;;18.20;99.90;;;;;;4148231;28;20050;-53
2023/07/25 01:57:40;;;;;;;7.28;3.97;;;18.20;99.90;;;;;;4147590;28;20453;-53
2023/07/25 01:59:42;;;;;;;11.57;4.47;;;18.20;99.90;;;;;;4148642;28;20108;-53
2023/07/25 02:01:44;;;;;;;9.93;4.65;;;18.20;99.90;;;;;;4148504;28;20125;-53
2023/07/25 02:03:46;;;;;;;7.30;4.32;;;18.10;99.90;;;;;;4132011;28;20069;-54
2023/07/25 02:05:50;;;;;;;7.47;3.70;;;18.20;99.90;;;;;;4132314;28;20062;-52
2023/07/25 02:07:52;;;;;;;5.57;3.72;;;18.20;99.90;;;;;;4132555;28;20520;-53
2023/07/25 02:09:54;;;;;;;6.97;3.50;;;18.20;99.90;;;;;;4132576;28;20056;-53
2023/07/25 02:11:58;;;;;;;9.57;4.00;;;18.20;99.90;;;;;;4133355;28;20081;-55
2023/07/25 02:14:01;;;;;;;9.65;3.83;;;18.10;99.90;;;;;;4098940;28;20082;-53
2023/07/25 02:16:04;;;;;;;5.60;3.53;;;18.20;99.90;;;;;;4132878;28;20050;-53
2023/07/25 02:18:06;;;;;;;7.30;3.78;;;18.10;99.90;;;;;;4132861;28;20054;-53
2023/07/25 02:20:09;;;;;;;6.30;3.20;;;18.10;99.90;;;;;;4131474;28;20413;-57
2023/07/25 02:22:12;;;;;;;5.97;3.42;;;18.10;99.90;;;;;;4114300;28;20062;-54
2023/07/25 02:24:15;;;;;;;7.55;3.90;;;18.20;99.90;;;;;;4132411;28;20101;-53
2023/07/25 02:26:17;;;;;;;6.78;2.97;;;18.20;99.90;;;;;;4132161;28;20047;-53
2023/07/25 02:28:19;;;;;;;8.93;3.92;;;18.20;99.90;;;;;;4132251;28;20104;-54
2023/07/25 02:30:22;;;;;;;5.18;3.22;;;18.20;99.90;;;;;;4132284;28;20076;-53
2023/07/25 02:32:27;;;;;;;5.38;3.15;;;18.20;99.90;;;;;;4114925;28;20047;-53
2023/07/25 02:34:29;;;;;;;6.32;3.13;;;18.10;99.90;;;;;;4131754;28;20053;-54
2023/07/25 02:36:31;;;;;;;7.18;3.20;;;18.10;99.90;;;;;;4132008;28;20046;-54
2023/07/25 02:38:34;;;;;;;7.78;3.45;;;18.10;99.90;;;;;;4131960;28;20081;-53
2023/07/25 02:40:36;;;;;;;4.93;3.20;;;18.10;99.90;;;;;;4132031;28;20050;-53
2023/07/25 02:42:38;;;;;;;6.80;3.15;;;18.10;99.90;;;;;;4131345;28;20073;-53
2023/07/25 02:44:40;;;;;;;5.55;3.40;;;18.20;99.90;;;;;;4131884;28;20129;-54
2023/07/25 02:46:44;;;;;;;5.60;3.65;;;18.20;99.90;;;;;;4131981;28;20050;-53
2023/07/25 02:48:46;;;;;;;6.55;3.90;;;18.10;99.90;;;;;;4131542;28;20491;-53
2023/07/25 02:50:48;;;;;;;7.15;3.80;;;18.10;99.90;;;;;;4131997;28;20042;-53
2023/07/25 02:52:50;;;;;;;5.20;3.05;;;18.10;99.90;;;;;;4131524;28;20133;-53
2023/07/25 02:54:52;;;;;;;4.70;2.88;;;18.10;99.90;;;;;;4132055;28;20074;-53
2023/07/25 02:56:54;;;;;;;3.85;2.90;;;18.10;99.90;;;;;;4131946;28;20073;-53
2023/07/25 02:58:57;;;;;;;8.10;2.92;;;18.10;99.90;;;;;;4131448;28;20096;-53
2023/07/25 03:00:59;;;;;;;6.65;3.33;;;18.10;99.90;;;;;;4131751;28;20054;-52
2023/07/25 03:03:03;;;;;;;4.88;3.00;;;18.10;99.90;;;;;;4119912;28;20409;-54
2023/07/25 03:05:05;;;;;;;7.65;3.45;;;18.10;99.90;;;;;;4115518;28;20054;-52
2023/07/25 03:07:07;;;;;;;6.68;3.55;;;18.10;99.90;;;;;;4115910;28;20159;-52
2023/07/25 03:09:09;;;;;;;8.43;3.50;;;18.10;99.90;;;;;;4115903;28;20043;-52
2023/07/25 03:11:11;;;;;;;10.80;3.33;;;18.10;99.90;;;;;;4115677;28;20115;-52
2023/07/25 03:13:14;;;;;;;4.63;3.75;;;18.10;99.90;;;;;;4114708;28;20106;-52
2023/07/25 03:15:16;;;;;;;7.45;3.63;;;18.10;99.90;;;;;;4115606;28;20085;-52
2023/07/25 03:17:18;;;;;;;6.57;3.15;;;18.00;99.90;;;;;;4115299;28;20140;-53
2023/07/25 03:19:22;;;;;;;7.40;3.40;;;17.90;99.90;;;;;;4098141;29;20492;-53
2023/07/25 03:21:24;;;;;;;7.38;3.67;;;17.90;99.90;;;;;;4115644;28;20074;-52
2023/07/25 03:23:26;;;;;;;5.13;3.22;;;17.90;99.90;;;;;;4114727;28;20133;-53
2023/07/25 03:25:28;;;;;;;6.93;3.70;;;17.90;99.90;;;;;;4115586;28;20071;-53
2023/07/25 03:27:30;;;;;;;6.10;3.67;;;17.90;99.90;;;;;;4115072;28;20047;-52
2023/07/25 03:29:32;;;;;;;7.90;3.42;;;17.90;99.90;;;;;;4115364;28;20130;-53
2023/07/25 03:31:34;;;;;;;5.70;3.50;;;17.80;99.90;;;;;;4114967;28;20054;-53
2023/07/25 03:33:36;;;;;;;4.20;3.05;;;17.80;99.90;;;;;;4114573;28;20050;-52
2023/07/25 03:35:41;;;;;;;7.82;4.18;;;17.80;99.90;;;;;;4115182;28;20122;-53
2023/07/25 03:37:43;;;;;;;;;;;17.70;99.90;;;;;;4115825;28;20062;-52
2023/07/25 03:39:45;;;;;;;8.35;3.63;;;17.70;99.90;;;;;;4115431;28;19922;-53
2023/07/25 03:41:47;;;;;;;7.72;3.88;;;17.70;99.90;;;;;;4115344;28;20046;-53
2023/07/25 03:43:49;;;;;;;7.43;3.88;;;17.70;99.90;;;;;;4114639;28;20047;-52
2023/07/25 03:45:51;;;;;;;6.63;3.72;;;17.70;99.90;;;;;;4114994;28;20051;-53
2023/07/25 03:47:53;;;;;;;8.50;4.03;;;17.70;99.90;;;;;;4115332;28;20054;-53
2023/07/25 03:49:55;;;;;;;9.70;3.75;;;17.70;99.90;;;;;;4129545;28;20494;-52
2023/07/25 03:51:59;;;;;;;7.90;3.88;;;17.70;99.90;;;;;;4131441;28;20125;-53
2023/07/25 03:54:01;;;;;;;7.00;4.07;;;17.70;99.90;;;;;;4130679;28;20046;-53
2023/07/25 03:56:04;;;;;;;7.93;4.05;;;17.70;99.90;;;;;;4131525;28;20502;-54
2023/07/25 03:58:06;;;;;;;9.13;4.38;;;17.70;99.90;;;;;;4129940;28;20093;-59
2023/07/25 04:00:09;;;;;;;8.57;4.72;;;17.60;99.90;;;;;;4131145;28;20101;-53
2023/07/25 04:02:11;;;;;;;11.32;5.05;;;17.70;99.90;;;;;;4126945;28;20042;-53
2023/07/25 04:04:13;;;;;;;9.15;4.10;;;17.60;99.90;;;;;;4114636;28;20422;-59
2023/07/25 04:06:15;;;;;;;8.35;4.00;;;17.70;99.90;;;;;;4114970;28;20482;-53
2023/07/25 04:08:19;;;;;;;10.73;4.28;;;17.70;99.90;;;;;;4115178;28;20133;-54
2023/07/25 04:10:21;;;;;;;8.57;3.83;;;17.70;99.90;;;;;;4115404;28;20130;-53
2023/07/25 04:12:23;;;;;;;8.52;3.70;;;17.50;99.90;;;;;;4115380;28;20062;-54
2023/07/25 04:14:26;;;;;;;9.23;3.92;;;17.60;99.90;;;;;;4114614;28;20125;-54
2023/07/25 04:16:28;;;;;;;7.20;3.45;;;17.60;99.90;;;;;;4115121;28;20047;-54
2023/07/25 04:18:30;;;;;;;7.43;3.63;;;17.60;99.90;;;;;;4115450;28;20113;-53
2023/07/25 04:20:32;;;;;;;8.50;4.63;;;17.60;99.90;;;;;;4118149;28;20105;-53
2023/07/25 04:22:34;;;;;;;10.38;4.15;;;17.70;99.90;;;;;;4117827;28;20406;-52
2023/07/25 04:24:38;;;;;;;12.18;4.45;;;17.70;99.90;;;;;;4118146;28;20129;-53
2023/07/25 04:26:40;;;;;;;6.75;4.32;;;17.60;99.90;;;;;;4101099;29;20435;-52
2023/07/25 04:28:42;;;;;;;6.07;4.40;;;17.60;99.90;;;;;;4118103;28;20470;-53
2023/07/25 04:30:44;;;;;;;10.23;4.40;;;17.60;99.90;;;;;;4117711;28;20046;-54
2023/07/25 04:32:50;;;;;;;11.10;5.18;;;17.60;99.90;;;;;;4117671;28;20054;-55
2023/07/25 04:34:52;;;;;;;11.98;4.53;;;17.60;99.90;;;;;;4101638;28;20047;-59
2023/07/25 04:36:58;;;;;;;10.32;4.45;;;17.60;99.90;;;;;;4118268;28;20109;-54
2023/07/25 04:39:00;;;;;;;11.57;4.90;;;17.70;99.90;;;;;;4118046;28;20051;-53
2023/07/25 04:41:04;;;;;;;11.35;5.13;;;17.60;99.90;;;;;;4117748;28;20474;-53
2023/07/25 04:43:06;;;;;;;11.43;5.63;;;17.60;99.90;;;;;;4117288;28;20058;-53
2023/07/25 04:45:09;;;;;;;10.00;4.97;;;17.50;99.90;;;;;;4117544;28;20058;-53
2023/07/25 04:47:11;;;;;;;10.63;4.70;;;17.50;99.90;;;;;;4117890;28;20134;-53
2023/07/25 04:49:14;;;;;;;5.55;4.57;;;17.50;99.90;;;;;;4091800;28;20107;-53
2023/07/25 04:51:16;;;;;;;11.43;4.82;;;17.50;99.90;;;;;;4101805;29;20406;-54
2023/07/25 04:53:18;;;;;;;13.40;5.43;;;17.40;99.90;;;;;;4101052;29;20047;-54
2023/07/25 04:55:20;;;;;;;11.30;4.85;;;17.40;99.90;;;;;;4101496;29;20476;-53
2023/07/25 04:57:26;;;;;;;8.25;5.03;;;17.50;99.90;;;;;;4101792;29;20142;-54
2023/07/25 04:59:28;;;;;;;13.38;4.95;;;17.50;99.90;;;;;;4105217;28;20086;-54
2023/07/25 05:01:30;;;;;;;9.43;4.35;;;17.50;99.90;;;;;;4117419;28;20126;-53
2023/07/25 05:03:33;;;;;;;6.00;4.43;;;17.50;99.90;;;;;;4116547;28;20047;-53
2023/07/25 05:05:35;;;;;;;6.97;4.50;;;17.50;99.90;;;;;;4117654;28;20560;-54
2023/07/25 05:07:37;;;;;;;7.45;4.63;;;17.50;99.90;;;;;;4117652;28;20552;-54
2023/07/25 05:09:39;;;;;;;8.52;4.57;;;17.40;99.90;;;;;;4117790;28;20129;-53
2023/07/25 05:11:41;;;;;;;10.18;4.80;;;17.40;99.90;;;;;;4117569;28;20047;-53
2023/07/25 05:13:45;;;;;;;12.50;4.88;;;17.40;99.90;;;;;;4116349;28;20108;-54
2023/07/25 05:15:47;;;;;;;6.30;4.50;;;17.40;99.90;;;;;;4117578;28;20138;-53
2023/07/25 05:17:49;;;;;;;8.05;5.35;;;17.50;99.90;;;;;;4117243;28;20043;-54
2023/07/25 05:19:51;;;;;;;9.68;5.50;;;17.50;99.90;;;;;;4117175;28;20102;-57
2023/07/25 05:21:53;;;;;;;6.03;4.50;;;17.50;99.90;;;;;;4117364;28;20501;-53
2023/07/25 05:23:55;;;;;;;6.50;4.50;;;17.50;99.90;;;;;;4116606;28;20411;-53
2023/07/25 05:25:57;;;;;;;6.97;4.72;;;17.50;99.90;;;;;;4117263;28;20066;-52
2023/07/25 05:27:59;;;;;;;5.47;4.10;;;17.50;99.90;;;;;;4117420;28;20134;-53
2023/07/25 05:30:05;;;;;;;5.80;4.80;;;17.50;99.90;;;;;;4116424;28;20101;-53
2023/07/25 05:32:07;;;;;;;7.03;4.68;;;17.50;99.90;;;;;;4116928;28;20047;-52
2023/07/25 05:34:09;;;;;;;10.63;5.30;;;17.50;99.90;;;;;;4116350;28;20101;-53
2023/07/25 05:36:11;;;;;;;4.93;4.45;;;17.50;99.90;;;;;;4099731;29;20043;-53
2023/07/25 05:38:14;;;;;;;9.75;6.22;;;17.50;99.90;;;;;;4116857;28;20054;-53
2023/07/25 05:40:16;;;;;;;7.85;4.43;;;17.50;99.90;;;;;;4116936;28;20078;-57
2023/07/25 05:42:18;;;;;;;10.45;5.10;;;17.50;99.90;;;;;;4116670;28;20098;-52
2023/07/25 05:44:20;;;;;;;6.47;4.90;;;17.50;99.90;;;;;;4116293;28;20130;-53
2023/07/25 05:46:24;;;;;;;6.47;5.00;;;17.60;99.90;;;;;;4099602;29;20099;-54
2023/07/25 05:48:26;;;;;;;8.75;4.75;;;17.60;99.90;;;;;;4116421;28;20061;-53
2023/07/25 05:50:28;;;;;;;6.72;4.90;;;17.60;99.90;;;;;;4116061;28;20138;-53
2023/07/25 05:52:30;;;;;;;7.28;4.70;;;17.60;99.90;;;;;;4116628;28;20122;-53
2023/07/25 05:54:32;;;;;;;6.45;4.32;;;17.60;99.90;;;;;;4115942;28;20093;-53
2023/07/25 05:56:34;;;;;;;5.60;4.70;;;17.60;99.90;;;;;;4116376;28;20055;-54
2023/07/25 05:58:36;;;;;;;7.80;5.00;;;17.60;99.90;;;;;;4116767;28;20046;-53
2023/07/25 06:00:38;;;;;;;6.72;4.30;;;17.60;99.90;;;;;;4116235;28;20238;-53
2023/07/25 06:02:42;;;;;;;5.60;4.45;;;17.60;99.90;;;;;;4116817;28;20054;-53
2023/07/25 06:04:46;;;;;;;7.53;5.15;;;17.60;99.90;;;;;;4099024;28;20047;-53
2023/07/25 06:06:48;;;;;;;8.40;5.10;;;17.60;99.90;;;;;;4099292;29;20048;-53
2023/07/25 06:08:50;;;;;;;8.32;4.97;;;17.60;99.90;;;;;;4116331;28;20073;-53
2023/07/25 06:10:52;;;;;;;9.85;5.32;;;17.50;99.90;;;;;;4116052;28;20483;-53
2023/07/25 06:12:54;;;;;;;6.22;4.47;;;17.50;99.90;;;;;;4116111;28;20387;-53
2023/07/25 06:14:57;;;;;;;5.15;4.10;;;17.40;99.90;;;;;;4098839;28;20172;-53
2023/07/25 06:16:58;;;;;;;11.48;5.50;;;17.40;99.90;;;;;;4116451;28;20046;-53
2023/07/25 06:19:02;;;;;;;8.95;5.10;;;17.30;99.90;;;;;;4116413;28;20557;-53
2023/07/25 06:21:04;;;;;;;12.02;5.25;;;17.40;99.90;;;;;;4117052;28;20082;-53
2023/07/25 06:23:06;;;;;;;11.60;5.53;;;17.20;99.90;;;;;;4115632;28;20058;-52
2023/07/25 06:25:09;;;;;;;12.85;5.68;;;17.30;99.90;;;;;;4116138;28;20050;-54
2023/07/25 06:27:11;;;;;;;7.70;5.45;;;17.30;99.90;;;;;;4115997;28;20047;-53
2023/07/25 06:29:13;;;;;;;11.18;5.25;;;17.30;99.90;;;;;;4099244;29;20051;-53
2023/07/25 06:31:15;;;;;;;17.95;6.82;;;17.20;99.90;;;;;;4116059;28;20388;-53
2023/07/25 06:33:17;;;;;;;15.02;6.63;;;17.20;99.90;;;;;;4098418;28;20125;-53
2023/07/25 06:35:22;;;;;;;12.85;7.07;;;17.10;99.90;;;;;;4116144;28;20047;-54
2023/07/25 06:37:24;;;;;;;16.25;6.88;;;17.00;99.90;;;;;;4116363;28;20051;-52
2023/07/25 06:39:26;;;;;;;13.35;8.07;;;16.90;99.90;;;;;;4116479;28;20085;-53
2023/07/25 06:41:28;;;;;;;13.32;7.20;;;16.90;99.90;;;;;;4115628;28;20050;-54
2023/07/25 06:43:31;;;;;;;22.23;8.45;;;17.00;99.90;;;;;;4115304;28;20462;-53
2023/07/25 06:45:33;;;;;;;22.23;8.73;;;16.90;99.90;;;;;;4115961;28;20392;-53
2023/07/25 06:47:35;;;;;;;18.65;8.15;;;16.80;99.90;;;;;;4115727;28;20043;-54
2023/07/25 06:49:37;;;;;;;23.23;9.73;;;16.80;99.90;;;;;;4116018;28;20046;-52
2023/07/25 06:51:41;;;;;;;15.93;8.20;;;16.80;99.90;;;;;;4116151;28;20054;-53
2023/07/25 06:53:44;;;;;;;15.05;7.88;;;16.80;99.90;;;;;;4115307;28;20507;-65
2023/07/25 06:55:46;;;;;;;16.40;8.30;;;16.70;99.90;;;;;;4115875;28;20058;-53
2023/07/25 06:57:48;;;;;;;14.98;8.05;;;16.60;99.90;;;;;;4116191;28;20089;-53
2023/07/25 06:59:50;;;;;;;16.50;7.82;;;16.60;99.90;;;;;;4115711;28;20051;-54
2023/07/25 07:01:53;;;;;;;17.08;7.60;;;16.60;99.90;;;;;;4115421;28;20050;-54
2023/07/25 07:03:55;;;;;;;11.70;6.70;;;16.60;99.90;;;;;;4115138;28;20047;-54
2023/07/25 07:05:57;;;;;;;13.57;6.72;;;16.50;99.90;;;;;;4115766;28;20058;-54
2023/07/25 07:08:01;;;;;;;14.70;5.20;;;16.50;99.90;;;;;;4115409;28;20046;-52
2023/07/25 07:10:03;;;;;;;11.40;4.22;;;16.40;99.90;;;;;;4115165;28;20058;-52
2023/07/25 07:12:07;;;;;;;10.00;3.92;;;16.40;99.90;;;;;;4115449;28;20046;-53
2023/07/25 07:14:09;;;;;;;13.45;3.47;;;16.20;99.90;;;;;;4114701;28;20053;-52
2023/07/25 07:16:11;;;;;;;13.52;3.90;;;16.30;99.90;;;;;;4115727;28;20106;-52
2023/07/25 07:18:16;;;;;;;8.82;3.63;;;16.20;99.90;;;;;;4098391;29;20463;-53
2023/07/25 07:20:18;;;;;;;10.60;3.20;;;16.30;99.90;;;;;;4115409;28;20043;-53
2023/07/25 07:22:20;;;;;;;8.93;3.38;;;16.30;99.90;;;;;;4115455;28;20470;-52
2023/07/25 07:24:24;;;;;;;8.60;3.05;;;16.30;99.90;;;;;;4114503;28;20490;-52
2023/07/25 07:26:27;;;;;;;8.70;3.85;;;16.20;99.90;;;;;;4098174;29;20051;-54
2023/07/25 07:28:29;;;;;;;10.80;3.40;;;16.20;99.90;;;;;;4115185;28;20043;-53
2023/07/25 07:30:31;;;;;;;6.40;2.85;;;16.10;99.90;;;;;;4115452;28;20125;-52
2023/07/25 07:32:33;;;;;;;9.85;3.53;;;16.10;99.90;;;;;;4115492;28;20046;-52
2023/07/25 07:34:36;;;;;;;13.57;3.28;;;16.00;99.90;;;;;;4114727;28;20491;-52
2023/07/25 07:36:38;;;;;;;5.75;2.97;;;16.00;99.90;;;;;;4082331;29;20425;-58
2023/07/25 07:38:41;;;;;;;13.00;3.13;;;16.00;99.90;;;;;;4114978;28;20134;-52
2023/07/25 07:40:44;;;;;;;10.73;3.13;;;16.00;99.90;;;;;;4098100;29;20063;-52
2023/07/25 07:42:46;;;;;;;12.15;2.72;;;16.00;99.90;;;;;;4115135;28;20090;-51
2023/07/25 07:44:48;;;;;;;8.30;2.67;;;16.00;99.90;;;;;;4114333;28;20047;-53
2023/07/25 07:46:51;;;;;;;7.05;2.40;;;16.00;99.90;;;;;;4115092;28;20047;-53
2023/07/25 07:48:53;;;;;;;9.27;2.45;;;16.00;99.90;;;;;;4115141;28;20054;-53
2023/07/25 07:50:55;;;;;;;9.95;2.63;;;15.90;99.90;;;;;;4115092;28;20057;-53
2023/07/25 07:52:57;;;;;;;6.30;2.40;;;15.80;99.90;;;;;;4114925;28;20061;-53
2023/07/25 07:54:59;;;;;;;6.47;2.53;;;15.80;99.90;;;;;;4117204;28;20128;-53
2023/07/25 07:57:03;;;;;;;10.95;2.63;;;15.80;99.90;;;;;;4118593;28;20102;-53
2023/07/25 07:59:06;;;;;;;6.57;2.22;;;15.70;99.90;;;;;;4118255;28;20047;-55
2023/07/25 08:01:13;;;;;;;7.90;1.67;;;15.70;99.90;;;;;;4118247;28;20055;-52
2023/07/25 08:03:15;;;;;;;4.78;1.13;;;15.60;99.90;;;;;;4116914;28;20501;-53
2023/07/25 08:05:18;;;;;;;2.72;1.25;;;15.70;99.90;;;;;;4118011;28;20058;-55
2023/07/25 08:07:20;;;;;;;7.63;1.67;;;15.60;99.90;;;;;;4117824;28;20047;-53
2023/07/25 08:09:22;;;;;;;6.15;1.58;;;15.60;99.90;;;;;;4118252;28;20051;-53
2023/07/25 08:11:25;;;;;;;5.93;1.60;;;15.60;99.90;;;;;;4116948;28;20050;-53
2023/07/25 08:13:28;;;;;;;5.97;1.65;;;15.70;99.90;;;;;;4117791;28;20070;-53
2023/07/25 08:15:30;;;;;;;3.47;1.30;;;15.70;99.90;;;;;;4117988;28;20074;-52
2023/07/25 08:17:32;;;;;;;2.08;1.20;;;15.80;99.90;;;;;;4118341;28;20047;-53
2023/07/25 08:19:34;;;;;;;3.78;1.42;;;15.60;99.90;;;;;;4118173;28;20125;-52
2023/07/25 08:21:37;;;;;;;8.25;1.40;;;15.60;99.90;;;;;;4117921;28;20050;-53
2023/07/25 08:23:39;;;;;;;6.88;1.55;;;15.60;99.90;;;;;;4117746;28;20061;-52
2023/07/25 08:25:41;;;;;;;6.95;1.83;;;15.60;99.90;;;;;;4118005;28;20054;-52
2023/07/25 08:27:43;;;;;;;5.78;1.83;;;15.50;99.90;;;;;;4118024;28;20082;-52
2023/07/25 08:29:47;;;;;;;11.93;1.98;;;15.40;99.90;;;;;;4117854;28;20129;-52
2023/07/25 08:31:49;;;;;;;5.28;1.48;;;15.40;99.90;;;;;;4118007;28;20444;-53
2023/07/25 08:33:51;;;;;;;4.72;1.58;;;15.50;99.90;;;;;;4117323;28;20494;-53
2023/07/25 08:35:54;;;;;;;4.70;1.60;;;15.60;99.90;;;;;;4117592;28;20054;-55
2023/07/25 08:37:57;;;;;;;7.28;1.90;;;15.50;99.90;;;;;;4117816;28;20046;-52
2023/07/25 08:39:59;;;;;;;4.03;1.45;;;15.60;99.90;;;;;;4118263;28;20066;-57
2023/07/25 08:42:04;;;;;;;13.80;1.60;;;15.70;99.90;;;;;;4118008;28;20129;-53
2023/07/25 08:44:12;;;;;;;4.43;1.73;;;15.70;99.90;;;;;;4117322;28;20053;-52
2023/07/25 08:46:19;;;;;;;9.55;1.63;;;15.80;99.90;;;;;;4117913;28;20051;-52
2023/07/25 08:48:22;;;;;;;3.63;1.38;;;15.90;99.90;;;;;;4117665;28;20387;-53
2023/07/25 08:50:29;;;;;;;4.75;1.33;;;16.10;99.90;;;;;;4117408;28;20061;-54
2023/07/25 08:52:33;;;;;;;7.13;1.83;;;16.20;99.90;;;;;;4117651;28;20054;-53
2023/07/25 08:54:36;;;;;;;6.25;1.80;;;16.30;99.90;;;;;;4117069;28;20133;-56
2023/07/25 08:56:39;;;;;;;5.20;1.60;;;16.40;99.90;;;;;;4117789;28;20051;-52
2023/07/25 08:58:44;;;;;;;5.95;1.60;;;16.50;99.90;;;;;;4117399;28;20051;-52
2023/07/25 09:00:47;;;;;;;5.93;1.70;;;16.50;99.90;;;;;;4117491;28;20058;-53
2023/07/25 09:02:51;;;;;;;5.63;1.75;;;16.50;99.90;;;;;;4117563;28;20059;-53
2023/07/25 09:04:55;;;;;;;6.60;1.65;;;16.70;99.90;;;;;;4116151;28;20051;-53
2023/07/25 09:06:59;;;;;;;6.97;1.75;;;16.80;99.90;;;;;;4117377;28;20391;-53
2023/07/25 09:09:02;;;;;;;5.88;1.63;;;17.00;99.90;;;;;;4117574;28;20050;-53
2023/07/25 09:11:07;;;;;;;4.82;1.80;;;17.10;99.90;;;;;;4117439;28;20553;-53
2023/07/25 09:13:09;;;;;;;6.63;1.95;;;17.00;99.90;;;;;;4100158;28;20106;-53
2023/07/25 09:15:11;;;;;;;3.72;1.67;;;17.00;99.90;;;;;;4116874;28;20081;-53
2023/07/25 09:17:13;;;;;;;4.50;1.73;;;17.00;99.90;;;;;;4117592;28;20098;-53
2023/07/25 09:19:18;;;;;;;6.20;1.85;;;17.00;99.90;;;;;;4117959;28;20527;-56
2023/07/25 09:21:20;;;;;;;3.27;1.40;;;17.20;99.90;;;;;;4117014;28;20043;-53
2023/07/25 09:23:22;;;;;;;7.80;1.98;;;17.30;99.90;;;;;;4117256;28;20113;-54
2023/07/25 09:25:26;;;;;;;14.95;2.95;;;17.50;99.90;;;;;;4116661;28;20042;-54
2023/07/25 09:27:28;;;;;;;10.05;2.58;;;17.60;99.90;;;;;;4117404;28;20134;-54
2023/07/25 09:29:37;;;;;;;5.63;1.92;;;17.60;99.90;;;;;;4117183;28;20054;-53
2023/07/25 09:31:43;;;;;;;4.15;2.17;;;17.70;99.90;;;;;;4117190;28;20057;-54
2023/07/25 09:33:48;;;;;;;7.57;2.17;;;17.70;99.90;;;;;;4099359;29;20494;-54
2023/07/25 09:35:52;;;;;;;5.63;2.20;;;17.80;99.90;;;;;;4099878;29;20422;-53
2023/07/25 09:37:55;;;;;;;6.30;2.13;;;17.90;99.90;;;;;;4116893;28;20137;-53
2023/07/25 09:39:57;;;;;;;10.18;2.83;;;17.90;99.90;;;;;;4117392;28;20125;-53
2023/07/25 09:42:00;;;;;;;9.50;2.28;;;18.20;99.90;;;;;;4117077;28;20073;-53
2023/07/25 09:44:03;;;;;;;8.07;2.55;;;18.20;99.90;;;;;;4116560;28;20046;-53
2023/07/25 09:46:05;;;;;;;5.65;2.10;;;18.30;99.90;;;;;;4117033;28;20490;-54
2023/07/25 09:48:07;;;;;;;6.35;2.42;;;18.20;99.90;;;;;;4116903;28;20097;-53
2023/07/25 09:50:09;;;;;;;16.05;2.97;;;18.20;99.90;;;;;;4116105;28;20050;-54
2023/07/25 09:52:13;;;;;;;15.90;2.78;;;18.30;99.90;;;;;;4116818;28;20046;-53
2023/07/25 09:54:15;;;;;;;9.90;2.70;;;18.50;99.90;;;;;;4116419;28;20055;-53
2023/07/25 09:56:19;;;;;;;8.77;2.15;;;18.50;99.90;;;;;;4117083;28;20463;-53
2023/07/25 09:58:22;;;;;;;8.00;2.15;;;18.70;99.90;;;;;;4116864;28;20478;-53
2023/07/25 10:00:24;;;;;;;12.32;2.50;;;19.10;99.90;;;;;;4116630;28;20061;-54
2023/07/25 10:02:26;;;;;;;7.20;2.67;;;19.20;99.90;;;;;;4116286;28;20070;-53
2023/07/25 10:04:29;;;;;;;7.10;2.35;;;19.20;99.90;;;;;;4115667;28;20043;-52
2023/07/25 10:06:35;;;;;;;9.23;2.35;;;19.20;99.90;;;;;;4116604;28;20081;-53
2023/07/25 10:08:39;;;;;;;7.32;2.30;;;19.30;99.60;;;;;;4116543;28;20057;-53
2023/07/25 10:10:42;;;;;;;4.55;2.28;;;19.40;99.10;;;;;;4099405;29;20047;-53
2023/07/25 10:12:44;;;;;;;7.82;2.15;;;19.50;98.90;;;;;;4116402;28;20046;-53
2023/07/25 10:14:49;;;;;;;7.00;2.20;;;19.80;98.90;;;;;;4115547;28;20047;-54
2023/07/25 10:16:52;;;;;;;5.53;2.30;;;19.80;97.70;;;;;;4115652;28;20074;-54
2023/07/25 10:18:57;;;;;;;6.43;2.58;;;19.80;97.60;;;;;;4116071;28;20055;-53
2023/07/25 10:20:59;;;;;;;8.73;3.25;;;19.80;97.00;;;;;;4116617;28;20122;-53
2023/07/25 10:23:11;;;;;;;8.80;2.80;;;19.70;97.50;;;;;;4116336;28;20138;-53
2023/07/25 10:25:21;;;;;;;5.95;2.60;;;19.90;97.20;;;;;;4098440;29;20422;-53
2023/07/25 10:27:23;;;;;;;5.88;2.97;;;19.80;97.70;;;;;;4116389;28;20049;-52
2023/07/25 10:29:36;;;;;;;7.10;2.80;;;19.90;97.40;;;;;;4116175;28;20097;-53
2023/07/25 10:31:50;;;;;;;10.27;2.95;;;20.00;96.60;;;;;;4116167;28;20051;-53
2023/07/25 10:33:54;;;;;;;7.68;2.30;;;19.90;96.60;;;;;;4098306;29;20065;-53
2023/07/25 10:35:57;;;;;;;4.60;2.58;;;19.80;96.60;;;;;;4115988;28;20053;-54
2023/07/25 10:38:06;;;;;;;4.00;2.45;;;20.00;97.10;;;;;;4116039;28;20223;-58